< Typhoon 201513 2015 Season Typhoon 201515 >
Typhoon 201514 (MOLAVE)
General InformationDetailed Track InformationTrack Information on Google MapsForecast History on Google MapsAccess Analytics MapList of All Images || NewsDisaster Info.WeblogTrackbackTyphoon FrontTwiphoonTyphoon Now!Typhoon ImaginationDisaster Info. XMLResourceGoogle EarthGE AnimationAtom FeedGeoJSON
Detalied Best Track Wind (Time Zone = UTC)
Year Month Day Hour Lat. Long. Wind (kt) Gust (kt) Direc. of Major Storm Axis Radius of Major Storm Axis (nm) Radius of Minor Storm Axis (nm) Direc. of Major Gale Axis Radius of Major Gale Axis (nm) Radius of Minor Gale Axis (nm) Image
2015 8 6 00 17.6 149.3 0 0 - - - - - - Image
2015 8 6 06 18.6 148.9 0 0 - - - - - - Image
2015 8 6 12 19.5 148.7 0 0 - - - - - - Image
2015 8 6 18 20.6 148.2 0 0 - - - - - - Image
2015 8 7 00 21.4 147.8 0 0 - - - - - - Image
2015 8 7 06 22.6 147.2 35 0 - - - NE 180 90 Image
2015 8 7 12 23.9 146.3 35 0 - - - NE 180 90 Image
2015 8 7 18 25.1 145.5 35 0 - - - NE 180 90 Image
2015 8 8 00 26.1 144.2 35 0 - - - NE 180 90 Image
2015 8 8 06 26.4 143.2 40 0 - - - symmetric 180 180 Image
2015 8 8 12 26.5 142.2 40 0 - - - symmetric 180 180 Image
2015 8 8 18 26.8 141.6 40 0 - - - symmetric 180 180 Image
2015 8 9 00 27.2 140.9 40 0 - - - symmetric 180 180 Image
2015 8 9 06 27.8 140.8 40 0 - - - symmetric 180 180 Image
2015 8 9 12 28.4 140.7 40 0 - - - symmetric 180 180 Image
2015 8 9 18 29.1 140.5 40 0 - - - symmetric 180 180 Image
2015 8 10 00 29.9 140.4 40 0 - - - symmetric 180 180 Image
2015 8 10 06 30.4 140.6 40 0 - - - symmetric 180 180 Image
2015 8 10 12 30.8 141.2 40 0 - - - symmetric 180 180 Image
2015 8 10 18 31.1 141.8 45 0 - - - symmetric 180 180 Image
2015 8 11 00 31.5 142.7 45 0 - - - symmetric 180 180 Image
2015 8 11 06 32.0 143.5 45 0 - - - symmetric 180 180 Image
2015 8 11 12 32.5 144.8 45 0 - - - symmetric 180 180 Image
2015 8 11 18 32.9 146.1 40 0 - - - SE 210 150 Image
2015 8 12 00 33.4 147.3 40 0 - - - SE 210 150 Image
2015 8 12 06 33.6 148.5 40 0 - - - SE 210 150 Image
2015 8 12 12 33.8 150.2 40 0 - - - SE 210 150 Image
2015 8 12 18 34.0 151.7 40 0 - - - SE 210 150 Image
2015 8 13 00 35.0 153.4 40 0 - - - SE 210 150 Image
2015 8 13 06 35.9 155.3 40 0 - - - SE 210 150 Image
2015 8 13 12 36.5 157.0 40 0 - - - SE 210 150 Image
2015 8 13 18 37.1 159.1 40 0 - - - SE 210 150 Image
2015 8 14 00 37.2 161.6 0 0 - - - - - - Image
2015 8 14 06 38.3 165.3 0 0 - - - - - - Image
2015 8 14 12 39.1 167.5 0 0 - - - - - - Image
2015 8 14 18 39.4 169.4 0 0 - - - - - - Image
2015 8 15 00 40.0 170.5 0 0 - - - - - - Image
2015 8 15 06 40.6 171.4 0 0 - - - - - - Image
2015 8 15 12 40.8 171.1 0 0 - - - - - - Image
2015 8 15 18 40.2 170.9 0 0 - - - - - - Image
2015 8 16 00 39.4 171.4 0 0 - - - - - - Image
2015 8 16 06 38.7 172.4 0 0 - - - - - - Image
2015 8 16 12 38.5 174.2 0 0 - - - - - - Image
2015 8 16 18 38.3 175.5 0 0 - - - - - - Image
2015 8 17 00 38.1 176.8 0 0 - - - - - - Image
2015 8 17 06 38.6 177.8 0 0 - - - - - - Image
2015 8 17 12 39.2 178.4 0 0 - - - - - - Image
2015 8 17 18 39.5 179.9 0 0 - - - - - - Image
2015 8 18 00 40.1 180.5 0 0 - - - - - - Image
Japan Meteorological Agency Best Track Data | Correction Date : 2015-09-25
< Typhoon 201513 2015 Season Typhoon 201515 >

Help